sensor_id;sensor_type;location;lat;lon;timestamp;P1;durP1;ratioP1;P2;durP2;ratioP2
20824;SDS011;10573;50.936;6.978;2023-07-31T00:00:49;10.13;;;3.23;;
20824;SDS011;10573;50.936;6.978;2023-07-31T00:03:14;9.20;;;3.40;;
20824;SDS011;10573;50.936;6.978;2023-07-31T00:05:40;7.38;;;3.17;;
20824;SDS011;10573;50.936;6.978;2023-07-31T00:08:05;8.03;;;2.90;;
20824;SDS011;10573;50.936;6.978;2023-07-31T00:10:31;8.57;;;3.13;;
20824;SDS011;10573;50.936;6.978;2023-07-31T00:12:56;7.67;;;3.03;;
20824;SDS011;10573;50.936;6.978;2023-07-31T00:15:21;8.83;;;3.13;;
20824;SDS011;10573;50.936;6.978;2023-07-31T00:17:47;6.30;;;2.97;;
20824;SDS011;10573;50.936;6.978;2023-07-31T00:20:12;9.13;;;3.10;;
20824;SDS011;10573;50.936;6.978;2023-07-31T00:22:38;10.13;;;3.20;;
20824;SDS011;10573;50.936;6.978;2023-07-31T00:25:03;7.83;;;3.23;;
20824;SDS011;10573;50.936;6.978;2023-07-31T00:27:31;12.20;;;3.70;;
20824;SDS011;10573;50.936;6.978;2023-07-31T00:29:56;6.53;;;3.60;;
20824;SDS011;10573;50.936;6.978;2023-07-31T00:32:22;8.27;;;3.45;;
20824;SDS011;10573;50.936;6.978;2023-07-31T00:34:47;8.13;;;3.27;;
20824;SDS011;10573;50.936;6.978;2023-07-31T00:37:13;9.40;;;3.20;;
20824;SDS011;10573;50.936;6.978;2023-07-31T00:39:38;8.55;;;3.17;;
20824;SDS011;10573;50.936;6.978;2023-07-31T00:42:04;6.20;;;3.03;;
20824;SDS011;10573;50.936;6.978;2023-07-31T00:44:29;7.70;;;3.35;;
20824;SDS011;10573;50.936;6.978;2023-07-31T00:46:54;5.33;;;3.20;;
20824;SDS011;10573;50.936;6.978;2023-07-31T00:49:21;6.95;;;3.20;;
20824;SDS011;10573;50.936;6.978;2023-07-31T00:51:47;6.60;;;2.95;;
20824;SDS011;10573;50.936;6.978;2023-07-31T00:54:13;5.80;;;3.00;;
20824;SDS011;10573;50.936;6.978;2023-07-31T00:56:38;6.07;;;2.90;;
20824;SDS011;10573;50.936;6.978;2023-07-31T00:59:05;6.05;;;2.45;;
20824;SDS011;10573;50.936;6.978;2023-07-31T01:01:31;6.57;;;3.00;;
20824;SDS011;10573;50.936;6.978;2023-07-31T01:03:56;5.00;;;2.67;;
20824;SDS011;10573;50.936;6.978;2023-07-31T01:06:47;6.07;;;2.77;;
20824;SDS011;10573;50.936;6.978;2023-07-31T01:11:57;6.60;;;2.70;;
20824;SDS011;10573;50.936;6.978;2023-07-31T01:14:26;5.50;;;2.57;;
20824;SDS011;10573;50.936;6.978;2023-07-31T01:16:52;5.00;;;2.67;;
20824;SDS011;10573;50.936;6.978;2023-07-31T01:19:17;6.27;;;2.53;;
20824;SDS011;10573;50.936;6.978;2023-07-31T01:24:54;6.50;;;2.35;;
20824;SDS011;10573;50.936;6.978;2023-07-31T01:27:34;6.15;;;2.72;;
20824;SDS011;10573;50.936;6.978;2023-07-31T01:30:05;6.25;;;2.90;;
20824;SDS011;10573;50.936;6.978;2023-07-31T01:32:39;6.88;;;2.63;;
20824;SDS011;10573;50.936;6.978;2023-07-31T01:35:07;5.50;;;2.72;;
20824;SDS011;10573;50.936;6.978;2023-07-31T01:37:33;5.18;;;2.50;;
20824;SDS011;10573;50.936;6.978;2023-07-31T01:39:59;4.85;;;2.65;;
20824;SDS011;10573;50.936;6.978;2023-07-31T01:42:24;6.67;;;2.93;;
20824;SDS011;10573;50.936;6.978;2023-07-31T01:44:50;5.38;;;2.80;;
20824;SDS011;10573;50.936;6.978;2023-07-31T01:47:15;9.23;;;2.60;;
20824;SDS011;10573;50.936;6.978;2023-07-31T01:49:40;8.63;;;2.83;;
20824;SDS011;10573;50.936;6.978;2023-07-31T01:52:06;8.02;;;2.70;;
20824;SDS011;10573;50.936;6.978;2023-07-31T01:54:31;3.73;;;2.10;;
20824;SDS011;10573;50.936;6.978;2023-07-31T01:56:58;5.07;;;2.80;;
20824;SDS011;10573;50.936;6.978;2023-07-31T01:59:23;6.10;;;2.60;;
20824;SDS011;10573;50.936;6.978;2023-07-31T02:01:49;5.43;;;2.47;;
20824;SDS011;10573;50.936;6.978;2023-07-31T02:04:14;6.40;;;2.50;;
20824;SDS011;10573;50.936;6.978;2023-07-31T02:06:40;5.50;;;2.50;;
20824;SDS011;10573;50.936;6.978;2023-07-31T02:09:05;6.70;;;2.70;;
20824;SDS011;10573;50.936;6.978;2023-07-31T02:11:30;6.07;;;2.43;;
20824;SDS011;10573;50.936;6.978;2023-07-31T02:13:56;6.90;;;2.70;;
20824;SDS011;10573;50.936;6.978;2023-07-31T02:16:21;6.40;;;2.90;;
20824;SDS011;10573;50.936;6.978;2023-07-31T02:18:47;10.40;;;3.10;;
20824;SDS011;10573;50.936;6.978;2023-07-31T02:21:12;6.33;;;2.63;;
20824;SDS011;10573;50.936;6.978;2023-07-31T02:23:37;5.25;;;2.50;;
20824;SDS011;10573;50.936;6.978;2023-07-31T02:26:03;5.57;;;2.90;;
20824;SDS011;10573;50.936;6.978;2023-07-31T02:28:28;4.70;;;2.53;;
20824;SDS011;10573;50.936;6.978;2023-07-31T02:30:54;9.90;;;2.85;;
20824;SDS011;10573;50.936;6.978;2023-07-31T02:33:19;4.50;;;2.60;;
20824;SDS011;10573;50.936;6.978;2023-07-31T02:35:45;7.20;;;2.90;;
20824;SDS011;10573;50.936;6.978;2023-07-31T02:38:10;8.87;;;3.03;;
20824;SDS011;10573;50.936;6.978;2023-07-31T02:40:36;5.13;;;2.65;;
20824;SDS011;10573;50.936;6.978;2023-07-31T02:43:01;5.13;;;2.80;;
20824;SDS011;10573;50.936;6.978;2023-07-31T02:45:27;8.53;;;3.33;;
20824;SDS011;10573;50.936;6.978;2023-07-31T02:47:52;8.40;;;2.75;;
20824;SDS011;10573;50.936;6.978;2023-07-31T02:50:17;8.53;;;3.10;;
20824;SDS011;10573;50.936;6.978;2023-07-31T02:52:43;7.73;;;3.20;;
20824;SDS011;10573;50.936;6.978;2023-07-31T02:55:08;7.27;;;3.03;;
20824;SDS011;10573;50.936;6.978;2023-07-31T02:57:33;7.20;;;3.00;;
20824;SDS011;10573;50.936;6.978;2023-07-31T02:59:59;7.80;;;3.00;;
20824;SDS011;10573;50.936;6.978;2023-07-31T03:02:24;6.40;;;2.60;;
20824;SDS011;10573;50.936;6.978;2023-07-31T03:04:49;9.60;;;3.30;;
20824;SDS011;10573;50.936;6.978;2023-07-31T03:07:15;8.60;;;3.17;;
20824;SDS011;10573;50.936;6.978;2023-07-31T03:09:40;7.25;;;2.90;;
20824;SDS011;10573;50.936;6.978;2023-07-31T03:12:06;13.20;;;3.20;;
20824;SDS011;10573;50.936;6.978;2023-07-31T03:14:32;9.73;;;3.25;;
20824;SDS011;10573;50.936;6.978;2023-07-31T03:16:57;9.10;;;3.13;;
20824;SDS011;10573;50.936;6.978;2023-07-31T03:19:22;7.97;;;3.50;;
20824;SDS011;10573;50.936;6.978;2023-07-31T03:21:48;5.57;;;3.03;;
20824;SDS011;10573;50.936;6.978;2023-07-31T03:24:13;7.73;;;3.27;;
20824;SDS011;10573;50.936;6.978;2023-07-31T03:26:39;9.95;;;3.22;;
20824;SDS011;10573;50.936;6.978;2023-07-31T03:29:06;8.02;;;2.90;;
20824;SDS011;10573;50.936;6.978;2023-07-31T03:31:32;7.05;;;3.22;;
20824;SDS011;10573;50.936;6.978;2023-07-31T03:33:57;7.10;;;3.30;;
20824;SDS011;10573;50.936;6.978;2023-07-31T03:36:23;7.63;;;3.33;;
20824;SDS011;10573;50.936;6.978;2023-07-31T03:38:48;6.57;;;3.33;;
20824;SDS011;10573;50.936;6.978;2023-07-31T03:41:13;7.00;;;3.20;;
20824;SDS011;10573;50.936;6.978;2023-07-31T03:43:39;9.40;;;3.50;;
20824;SDS011;10573;50.936;6.978;2023-07-31T03:46:04;9.95;;;3.67;;
20824;SDS011;10573;50.936;6.978;2023-07-31T03:48:30;7.83;;;3.20;;
20824;SDS011;10573;50.936;6.978;2023-07-31T03:50:57;6.60;;;3.30;;
20824;SDS011;10573;50.936;6.978;2023-07-31T03:53:22;7.87;;;3.63;;
20824;SDS011;10573;50.936;6.978;2023-07-31T03:55:47;7.47;;;2.95;;
20824;SDS011;10573;50.936;6.978;2023-07-31T03:58:13;7.80;;;3.33;;
20824;SDS011;10573;50.936;6.978;2023-07-31T04:00:39;6.67;;;3.33;;
20824;SDS011;10573;50.936;6.978;2023-07-31T04:03:05;10.30;;;3.67;;
20824;SDS011;10573;50.936;6.978;2023-07-31T04:05:31;10.40;;;3.70;;
20824;SDS011;10573;50.936;6.978;2023-07-31T04:07:57;7.05;;;3.70;;
20824;SDS011;10573;50.936;6.978;2023-07-31T04:10:23;8.02;;;3.67;;
20824;SDS011;10573;50.936;6.978;2023-07-31T04:12:48;8.27;;;3.90;;
20824;SDS011;10573;50.936;6.978;2023-07-31T04:15:14;7.75;;;3.80;;
20824;SDS011;10573;50.936;6.978;2023-07-31T04:17:39;7.83;;;3.47;;
20824;SDS011;10573;50.936;6.978;2023-07-31T04:20:05;8.73;;;4.10;;
20824;SDS011;10573;50.936;6.978;2023-07-31T04:22:30;8.80;;;3.65;;
20824;SDS011;10573;50.936;6.978;2023-07-31T04:24:56;8.20;;;3.90;;
20824;SDS011;10573;50.936;6.978;2023-07-31T04:27:21;7.00;;;3.60;;
20824;SDS011;10573;50.936;6.978;2023-07-31T04:29:47;9.70;;;3.73;;
20824;SDS011;10573;50.936;6.978;2023-07-31T04:32:12;8.13;;;3.70;;
20824;SDS011;10573;50.936;6.978;2023-07-31T04:34:38;10.10;;;4.20;;
20824;SDS011;10573;50.936;6.978;2023-07-31T04:37:03;8.75;;;3.80;;
20824;SDS011;10573;50.936;6.978;2023-07-31T04:39:29;7.47;;;3.50;;
20824;SDS011;10573;50.936;6.978;2023-07-31T04:41:54;6.23;;;3.70;;
20824;SDS011;10573;50.936;6.978;2023-07-31T04:44:20;8.30;;;3.87;;
20824;SDS011;10573;50.936;6.978;2023-07-31T04:46:45;9.23;;;3.77;;
20824;SDS011;10573;50.936;6.978;2023-07-31T04:49:11;9.23;;;3.60;;
20824;SDS011;10573;50.936;6.978;2023-07-31T04:51:36;5.60;;;3.28;;
20824;SDS011;10573;50.936;6.978;2023-07-31T04:54:02;8.43;;;3.73;;
20824;SDS011;10573;50.936;6.978;2023-07-31T04:56:27;6.97;;;3.33;;
20824;SDS011;10573;50.936;6.978;2023-07-31T04:58:53;6.53;;;3.60;;
20824;SDS011;10573;50.936;6.978;2023-07-31T05:01:18;7.10;;;3.50;;
20824;SDS011;10573;50.936;6.978;2023-07-31T05:03:43;7.53;;;3.80;;
20824;SDS011;10573;50.936;6.978;2023-07-31T05:06:09;7.88;;;3.70;;
20824;SDS011;10573;50.936;6.978;2023-07-31T05:08:34;7.37;;;3.97;;
20824;SDS011;10573;50.936;6.978;2023-07-31T05:11:00;9.03;;;3.37;;
20824;SDS011;10573;50.936;6.978;2023-07-31T05:13:25;6.17;;;3.83;;
20824;SDS011;10573;50.936;6.978;2023-07-31T05:15:51;5.60;;;3.50;;
20824;SDS011;10573;50.936;6.978;2023-07-31T05:18:16;6.82;;;3.65;;
20824;SDS011;10573;50.936;6.978;2023-07-31T05:20:41;7.23;;;3.57;;
20824;SDS011;10573;50.936;6.978;2023-07-31T05:23:07;7.10;;;3.50;;
20824;SDS011;10573;50.936;6.978;2023-07-31T05:25:33;6.53;;;3.70;;
20824;SDS011;10573;50.936;6.978;2023-07-31T05:27:59;7.10;;;3.07;;
20824;SDS011;10573;50.936;6.978;2023-07-31T05:30:24;6.30;;;3.30;;
20824;SDS011;10573;50.936;6.978;2023-07-31T05:32:50;7.55;;;3.22;;
20824;SDS011;10573;50.936;6.978;2023-07-31T05:35:15;5.57;;;3.23;;
20824;SDS011;10573;50.936;6.978;2023-07-31T05:37:40;7.70;;;3.43;;
20824;SDS011;10573;50.936;6.978;2023-07-31T05:40:06;6.50;;;3.78;;
20824;SDS011;10573;50.936;6.978;2023-07-31T05:42:32;6.20;;;3.38;;
20824;SDS011;10573;50.936;6.978;2023-07-31T05:44:57;6.47;;;3.40;;
20824;SDS011;10573;50.936;6.978;2023-07-31T05:47:23;8.50;;;3.77;;
20824;SDS011;10573;50.936;6.978;2023-07-31T05:49:48;8.07;;;3.45;;
20824;SDS011;10573;50.936;6.978;2023-07-31T05:52:14;13.50;;;3.95;;
20824;SDS011;10573;50.936;6.978;2023-07-31T05:54:40;9.10;;;3.87;;
20824;SDS011;10573;50.936;6.978;2023-07-31T05:57:06;6.35;;;3.45;;
20824;SDS011;10573;50.936;6.978;2023-07-31T05:59:32;9.13;;;4.40;;
20824;SDS011;10573;50.936;6.978;2023-07-31T06:01:58;5.88;;;3.45;;
20824;SDS011;10573;50.936;6.978;2023-07-31T06:04:23;7.75;;;3.63;;
20824;SDS011;10573;50.936;6.978;2023-07-31T06:06:50;6.35;;;3.40;;
20824;SDS011;10573;50.936;6.978;2023-07-31T06:09:16;7.55;;;3.75;;
20824;SDS011;10573;50.936;6.978;2023-07-31T06:11:41;6.63;;;3.50;;
20824;SDS011;10573;50.936;6.978;2023-07-31T06:14:07;6.50;;;3.30;;
20824;SDS011;10573;50.936;6.978;2023-07-31T06:16:32;9.50;;;3.80;;
20824;SDS011;10573;50.936;6.978;2023-07-31T06:18:57;12.70;;;4.60;;
20824;SDS011;10573;50.936;6.978;2023-07-31T06:21:23;6.88;;;3.38;;
20824;SDS011;10573;50.936;6.978;2023-07-31T06:23:48;7.20;;;3.43;;
20824;SDS011;10573;50.936;6.978;2023-07-31T06:26:14;6.53;;;3.40;;
20824;SDS011;10573;50.936;6.978;2023-07-31T06:28:39;9.98;;;3.60;;
20824;SDS011;10573;50.936;6.978;2023-07-31T06:31:04;7.93;;;3.60;;
20824;SDS011;10573;50.936;6.978;2023-07-31T06:33:30;6.27;;;3.57;;
20824;SDS011;10573;50.936;6.978;2023-07-31T06:35:55;7.40;;;3.70;;
20824;SDS011;10573;50.936;6.978;2023-07-31T06:38:25;8.17;;;4.17;;
20824;SDS011;10573;50.936;6.978;2023-07-31T06:40:52;7.57;;;3.65;;
20824;SDS011;10573;50.936;6.978;2023-07-31T06:43:18;8.93;;;3.75;;
20824;SDS011;10573;50.936;6.978;2023-07-31T06:45:43;5.25;;;3.63;;
20824;SDS011;10573;50.936;6.978;2023-07-31T06:48:09;8.23;;;4.10;;
20824;SDS011;10573;50.936;6.978;2023-07-31T06:50:35;8.93;;;3.28;;
20824;SDS011;10573;50.936;6.978;2023-07-31T06:53:00;7.10;;;3.33;;
20824;SDS011;10573;50.936;6.978;2023-07-31T06:55:26;7.33;;;3.00;;
20824;SDS011;10573;50.936;6.978;2023-07-31T06:57:53;8.77;;;3.67;;
20824;SDS011;10573;50.936;6.978;2023-07-31T07:00:20;7.43;;;3.42;;
20824;SDS011;10573;50.936;6.978;2023-07-31T07:02:46;7.55;;;3.85;;
20824;SDS011;10573;50.936;6.978;2023-07-31T07:05:15;6.80;;;3.22;;
20824;SDS011;10573;50.936;6.978;2023-07-31T07:07:41;6.80;;;3.58;;
20824;SDS011;10573;50.936;6.978;2023-07-31T07:10:07;8.98;;;4.15;;
20824;SDS011;10573;50.936;6.978;2023-07-31T07:12:33;9.63;;;4.38;;
20824;SDS011;10573;50.936;6.978;2023-07-31T07:14:59;9.90;;;4.57;;
20824;SDS011;10573;50.936;6.978;2023-07-31T07:17:26;9.23;;;4.60;;
20824;SDS011;10573;50.936;6.978;2023-07-31T07:19:52;8.10;;;4.22;;
20824;SDS011;10573;50.936;6.978;2023-07-31T07:22:18;7.37;;;4.13;;
20824;SDS011;10573;50.936;6.978;2023-07-31T07:24:43;8.25;;;4.05;;
20824;SDS011;10573;50.936;6.978;2023-07-31T07:27:09;6.40;;;3.70;;
20824;SDS011;10573;50.936;6.978;2023-07-31T07:29:34;6.90;;;3.63;;
20824;SDS011;10573;50.936;6.978;2023-07-31T07:32:00;6.47;;;3.40;;
20824;SDS011;10573;50.936;6.978;2023-07-31T07:34:26;5.28;;;3.38;;
20824;SDS011;10573;50.936;6.978;2023-07-31T07:36:53;6.40;;;3.40;;
20824;SDS011;10573;50.936;6.978;2023-07-31T07:39:18;8.00;;;3.30;;
20824;SDS011;10573;50.936;6.978;2023-07-31T07:41:43;5.83;;;3.63;;
20824;SDS011;10573;50.936;6.978;2023-07-31T07:44:09;12.80;;;4.95;;
20824;SDS011;10573;50.936;6.978;2023-07-31T07:46:34;8.23;;;4.37;;
20824;SDS011;10573;50.936;6.978;2023-07-31T07:49:00;8.63;;;3.90;;
20824;SDS011;10573;50.936;6.978;2023-07-31T07:51:25;8.45;;;3.72;;
20824;SDS011;10573;50.936;6.978;2023-07-31T07:53:51;6.90;;;3.53;;
20824;SDS011;10573;50.936;6.978;2023-07-31T07:56:16;6.47;;;3.87;;
20824;SDS011;10573;50.936;6.978;2023-07-31T07:58:41;7.17;;;3.80;;
20824;SDS011;10573;50.936;6.978;2023-07-31T08:01:07;7.53;;;3.60;;
20824;SDS011;10573;50.936;6.978;2023-07-31T08:03:32;9.00;;;3.73;;
20824;SDS011;10573;50.936;6.978;2023-07-31T08:05:58;8.67;;;3.80;;
20824;SDS011;10573;50.936;6.978;2023-07-31T08:08:24;6.82;;;3.97;;
20824;SDS011;10573;50.936;6.978;2023-07-31T08:10:49;7.13;;;3.20;;
20824;SDS011;10573;50.936;6.978;2023-07-31T08:13:15;8.23;;;2.97;;
20824;SDS011;10573;50.936;6.978;2023-07-31T08:15:43;7.93;;;3.03;;
20824;SDS011;10573;50.936;6.978;2023-07-31T08:18:09;5.25;;;2.90;;
20824;SDS011;10573;50.936;6.978;2023-07-31T08:20:36;5.90;;;2.60;;
20824;SDS011;10573;50.936;6.978;2023-07-31T08:23:02;4.65;;;2.40;;
20824;SDS011;10573;50.936;6.978;2023-07-31T08:25:27;4.03;;;2.27;;
20824;SDS011;10573;50.936;6.978;2023-07-31T08:27:52;5.17;;;2.63;;
20824;SDS011;10573;50.936;6.978;2023-07-31T08:30:18;5.63;;;2.85;;
20824;SDS011;10573;50.936;6.978;2023-07-31T08:32:44;4.28;;;2.60;;
20824;SDS011;10573;50.936;6.978;2023-07-31T08:35:10;6.07;;;2.73;;
20824;SDS011;10573;50.936;6.978;2023-07-31T08:37:35;5.00;;;2.97;;
20824;SDS011;10573;50.936;6.978;2023-07-31T08:40:01;6.27;;;3.00;;
20824;SDS011;10573;50.936;6.978;2023-07-31T08:42:26;5.40;;;2.92;;
20824;SDS011;10573;50.936;6.978;2023-07-31T08:44:52;5.33;;;2.73;;
20824;SDS011;10573;50.936;6.978;2023-07-31T08:47:17;7.10;;;3.00;;
20824;SDS011;10573;50.936;6.978;2023-07-31T08:49:44;6.82;;;2.92;;
20824;SDS011;10573;50.936;6.978;2023-07-31T08:52:11;6.38;;;3.13;;
20824;SDS011;10573;50.936;6.978;2023-07-31T08:54:36;7.80;;;3.30;;
20824;SDS011;10573;50.936;6.978;2023-07-31T08:57:02;6.47;;;2.80;;
20824;SDS011;10573;50.936;6.978;2023-07-31T08:59:29;8.07;;;3.00;;
20824;SDS011;10573;50.936;6.978;2023-07-31T09:01:56;8.02;;;3.47;;
20824;SDS011;10573;50.936;6.978;2023-07-31T09:04:25;7.68;;;3.22;;
20824;SDS011;10573;50.936;6.978;2023-07-31T09:06:53;4.97;;;2.85;;
20824;SDS011;10573;50.936;6.978;2023-07-31T09:09:24;5.23;;;2.90;;
20824;SDS011;10573;50.936;6.978;2023-07-31T09:11:50;5.97;;;2.60;;
20824;SDS011;10573;50.936;6.978;2023-07-31T09:14:16;4.70;;;3.25;;
20824;SDS011;10573;50.936;6.978;2023-07-31T09:16:55;7.15;;;3.00;;
20824;SDS011;10573;50.936;6.978;2023-07-31T09:19:25;4.85;;;2.78;;
20824;SDS011;10573;50.936;6.978;2023-07-31T09:21:51;5.30;;;2.67;;
20824;SDS011;10573;50.936;6.978;2023-07-31T09:24:30;5.95;;;2.45;;
20824;SDS011;10573;50.936;6.978;2023-07-31T09:26:57;4.30;;;2.40;;
20824;SDS011;10573;50.936;6.978;2023-07-31T09:29:24;6.15;;;3.00;;
20824;SDS011;10573;50.936;6.978;2023-07-31T09:31:50;5.60;;;2.13;;
20824;SDS011;10573;50.936;6.978;2023-07-31T09:34:16;4.82;;;2.72;;
20824;SDS011;10573;50.936;6.978;2023-07-31T09:36:42;5.10;;;2.45;;
20824;SDS011;10573;50.936;6.978;2023-07-31T09:39:12;7.05;;;2.85;;
20824;SDS011;10573;50.936;6.978;2023-07-31T09:41:39;6.07;;;2.63;;
20824;SDS011;10573;50.936;6.978;2023-07-31T09:44:06;5.07;;;2.60;;
20824;SDS011;10573;50.936;6.978;2023-07-31T09:46:32;6.60;;;2.92;;
20824;SDS011;10573;50.936;6.978;2023-07-31T09:49:07;5.07;;;2.60;;
20824;SDS011;10573;50.936;6.978;2023-07-31T09:51:40;6.38;;;2.63;;
20824;SDS011;10573;50.936;6.978;2023-07-31T09:54:14;4.40;;;2.65;;
20824;SDS011;10573;50.936;6.978;2023-07-31T09:56:45;6.32;;;2.63;;
20824;SDS011;10573;50.936;6.978;2023-07-31T09:59:16;6.97;;;2.70;;
20824;SDS011;10573;50.936;6.978;2023-07-31T10:01:43;6.13;;;2.85;;
20824;SDS011;10573;50.936;6.978;2023-07-31T10:04:11;6.32;;;2.95;;
20824;SDS011;10573;50.936;6.978;2023-07-31T10:06:37;4.47;;;2.47;;
20824;SDS011;10573;50.936;6.978;2023-07-31T10:09:07;4.45;;;2.30;;
20824;SDS011;10573;50.936;6.978;2023-07-31T10:11:38;4.45;;;2.30;;
20824;SDS011;10573;50.936;6.978;2023-07-31T10:14:15;5.60;;;2.40;;
20824;SDS011;10573;50.936;6.978;2023-07-31T10:16:45;4.85;;;2.42;;
20824;SDS011;10573;50.936;6.978;2023-07-31T10:19:11;3.88;;;2.63;;
20824;SDS011;10573;50.936;6.978;2023-07-31T10:21:37;5.43;;;2.63;;
20824;SDS011;10573;50.936;6.978;2023-07-31T10:24:03;5.10;;;2.72;;
20824;SDS011;10573;50.936;6.978;2023-07-31T10:26:30;5.65;;;2.25;;
20824;SDS011;10573;50.936;6.978;2023-07-31T10:28:56;5.75;;;2.85;;
20824;SDS011;10573;50.936;6.978;2023-07-31T10:31:23;5.57;;;2.30;;
20824;SDS011;10573;50.936;6.978;2023-07-31T10:33:49;5.67;;;2.50;;
20824;SDS011;10573;50.936;6.978;2023-07-31T10:36:19;6.13;;;2.67;;
20824;SDS011;10573;50.936;6.978;2023-07-31T10:38:45;4.95;;;2.60;;
20824;SDS011;10573;50.936;6.978;2023-07-31T10:41:14;4.25;;;2.83;;
20824;SDS011;10573;50.936;6.978;2023-07-31T10:43:39;5.20;;;2.43;;
20824;SDS011;10573;50.936;6.978;2023-07-31T10:46:12;5.50;;;2.33;;
20824;SDS011;10573;50.936;6.978;2023-07-31T10:48:39;4.93;;;2.20;;
20824;SDS011;10573;50.936;6.978;2023-07-31T10:51:09;4.50;;;2.50;;
20824;SDS011;10573;50.936;6.978;2023-07-31T10:53:37;4.47;;;2.20;;
20824;SDS011;10573;50.936;6.978;2023-07-31T10:56:07;4.05;;;1.98;;
20824;SDS011;10573;50.936;6.978;2023-07-31T10:58:34;3.65;;;2.30;;
20824;SDS011;10573;50.936;6.978;2023-07-31T11:01:01;4.32;;;2.30;;
20824;SDS011;10573;50.936;6.978;2023-07-31T11:03:47;4.88;;;1.90;;
20824;SDS011;10573;50.936;6.978;2023-07-31T11:06:14;2.83;;;2.10;;
20824;SDS011;10573;50.936;6.978;2023-07-31T11:08:44;2.70;;;1.83;;
20824;SDS011;10573;50.936;6.978;2023-07-31T11:11:12;3.53;;;1.52;;
20824;SDS011;10573;50.936;6.978;2023-07-31T11:16:06;2.90;;;1.35;;
20824;SDS011;10573;50.936;6.978;2023-07-31T11:18:31;2.03;;;1.30;;
20824;SDS011;10573;50.936;6.978;2023-07-31T11:20:57;3.40;;;1.40;;
20824;SDS011;10573;50.936;6.978;2023-07-31T11:23:22;3.00;;;1.40;;
20824;SDS011;10573;50.936;6.978;2023-07-31T11:25:48;3.27;;;1.23;;
20824;SDS011;10573;50.936;6.978;2023-07-31T11:28:16;1.60;;;0.90;;
20824;SDS011;10573;50.936;6.978;2023-07-31T11:30:43;2.20;;;0.90;;
20824;SDS011;10573;50.936;6.978;2023-07-31T11:33:10;2.67;;;1.10;;
20824;SDS011;10573;50.936;6.978;2023-07-31T11:35:40;2.63;;;0.80;;
20824;SDS011;10573;50.936;6.978;2023-07-31T11:38:07;1.55;;;0.80;;
20824;SDS011;10573;50.936;6.978;2023-07-31T11:40:40;2.35;;;0.77;;
20824;SDS011;10573;50.936;6.978;2023-07-31T11:43:07;1.83;;;0.90;;
20824;SDS011;10573;50.936;6.978;2023-07-31T11:45:32;2.40;;;1.10;;
20824;SDS011;10573;50.936;6.978;2023-07-31T11:47:58;3.55;;;1.00;;
20824;SDS011;10573;50.936;6.978;2023-07-31T11:50:24;1.37;;;1.00;;
20824;SDS011;10573;50.936;6.978;2023-07-31T11:52:53;1.70;;;0.70;;
20824;SDS011;10573;50.936;6.978;2023-07-31T11:55:23;1.52;;;0.65;;
20824;SDS011;10573;50.936;6.978;2023-07-31T11:57:48;1.35;;;0.50;;
20824;SDS011;10573;50.936;6.978;2023-07-31T12:00:15;1.10;;;0.70;;
20824;SDS011;10573;50.936;6.978;2023-07-31T12:02:41;2.10;;;0.73;;
20824;SDS011;10573;50.936;6.978;2023-07-31T12:05:11;1.05;;;0.63;;
20824;SDS011;10573;50.936;6.978;2023-07-31T12:07:44;1.73;;;0.70;;
20824;SDS011;10573;50.936;6.978;2023-07-31T12:10:10;1.13;;;0.57;;
20824;SDS011;10573;50.936;6.978;2023-07-31T12:12:36;1.47;;;0.80;;
20824;SDS011;10573;50.936;6.978;2023-07-31T12:15:01;0.70;;;0.60;;
20824;SDS011;10573;50.936;6.978;2023-07-31T12:17:26;1.63;;;0.70;;
20824;SDS011;10573;50.936;6.978;2023-07-31T12:19:52;1.50;;;0.80;;
20824;SDS011;10573;50.936;6.978;2023-07-31T12:22:18;1.40;;;0.70;;
20824;SDS011;10573;50.936;6.978;2023-07-31T12:24:46;1.27;;;0.60;;
20824;SDS011;10573;50.936;6.978;2023-07-31T12:27:12;1.73;;;0.60;;
20824;SDS011;10573;50.936;6.978;2023-07-31T12:29:43;2.28;;;0.85;;
20824;SDS011;10573;50.936;6.978;2023-07-31T12:32:19;1.17;;;0.60;;
20824;SDS011;10573;50.936;6.978;2023-07-31T12:34:45;0.50;;;0.50;;
20824;SDS011;10573;50.936;6.978;2023-07-31T12:37:11;1.33;;;1.00;;
20824;SDS011;10573;50.936;6.978;2023-07-31T12:39:37;0.70;;;0.60;;
20824;SDS011;10573;50.936;6.978;2023-07-31T12:42:02;2.00;;;1.00;;
20824;SDS011;10573;50.936;6.978;2023-07-31T12:44:28;1.07;;;0.80;;
20824;SDS011;10573;50.936;6.978;2023-07-31T12:46:53;1.60;;;1.00;;
20824;SDS011;10573;50.936;6.978;2023-07-31T12:49:19;1.00;;;0.90;;
20824;SDS011;10573;50.936;6.978;2023-07-31T12:51:44;1.40;;;1.17;;
20824;SDS011;10573;50.936;6.978;2023-07-31T12:54:09;2.57;;;1.20;;
20824;SDS011;10573;50.936;6.978;2023-07-31T12:56:35;1.60;;;1.10;;
20824;SDS011;10573;50.936;6.978;2023-07-31T12:59:00;3.05;;;1.38;;
20824;SDS011;10573;50.936;6.978;2023-07-31T13:01:25;3.50;;;1.50;;
20824;SDS011;10573;50.936;6.978;2023-07-31T13:03:51;1.70;;;1.33;;
20824;SDS011;10573;50.936;6.978;2023-07-31T13:06:17;3.93;;;1.77;;
20824;SDS011;10573;50.936;6.978;2023-07-31T13:08:42;2.27;;;1.40;;
20824;SDS011;10573;50.936;6.978;2023-07-31T13:11:07;2.80;;;1.73;;
20824;SDS011;10573;50.936;6.978;2023-07-31T13:13:33;2.72;;;2.00;;
20824;SDS011;10573;50.936;6.978;2023-07-31T13:15:58;2.47;;;2.00;;
20824;SDS011;10573;50.936;6.978;2023-07-31T13:18:24;3.37;;;2.10;;
20824;SDS011;10573;50.936;6.978;2023-07-31T13:20:49;2.90;;;2.00;;
20824;SDS011;10573;50.936;6.978;2023-07-31T13:23:14;3.53;;;1.90;;
20824;SDS011;10573;50.936;6.978;2023-07-31T13:25:40;4.70;;;2.20;;
20824;SDS011;10573;50.936;6.978;2023-07-31T13:28:05;2.90;;;2.03;;
20824;SDS011;10573;50.936;6.978;2023-07-31T13:30:30;3.42;;;2.42;;
20824;SDS011;10573;50.936;6.978;2023-07-31T13:32:56;3.70;;;2.20;;
20824;SDS011;10573;50.936;6.978;2023-07-31T13:35:21;3.07;;;2.17;;
20824;SDS011;10573;50.936;6.978;2023-07-31T13:37:46;2.53;;;2.13;;
20824;SDS011;10573;50.936;6.978;2023-07-31T13:40:12;3.38;;;2.08;;
20824;SDS011;10573;50.936;6.978;2023-07-31T13:42:37;3.27;;;2.07;;
20824;SDS011;10573;50.936;6.978;2023-07-31T13:45:03;2.53;;;1.93;;
20824;SDS011;10573;50.936;6.978;2023-07-31T13:47:28;2.83;;;2.20;;
20824;SDS011;10573;50.936;6.978;2023-07-31T13:49:54;2.50;;;2.07;;
20824;SDS011;10573;50.936;6.978;2023-07-31T13:52:19;3.00;;;2.20;;
20824;SDS011;10573;50.936;6.978;2023-07-31T13:54:45;3.58;;;2.50;;
20824;SDS011;10573;50.936;6.978;2023-07-31T13:57:10;4.20;;;2.20;;
20824;SDS011;10573;50.936;6.978;2023-07-31T13:59:35;3.67;;;2.17;;
20824;SDS011;10573;50.936;6.978;2023-07-31T14:02:01;3.30;;;2.28;;
20824;SDS011;10573;50.936;6.978;2023-07-31T14:04:27;5.40;;;2.35;;
20824;SDS011;10573;50.936;6.978;2023-07-31T14:06:53;2.57;;;1.90;;
20824;SDS011;10573;50.936;6.978;2023-07-31T14:09:18;3.73;;;1.90;;
20824;SDS011;10573;50.936;6.978;2023-07-31T14:11:44;2.83;;;1.83;;
20824;SDS011;10573;50.936;6.978;2023-07-31T14:14:09;2.97;;;1.50;;
20824;SDS011;10573;50.936;6.978;2023-07-31T14:16:35;3.33;;;1.70;;
20824;SDS011;10573;50.936;6.978;2023-07-31T14:19:00;2.50;;;1.75;;
20824;SDS011;10573;50.936;6.978;2023-07-31T14:21:26;2.00;;;1.67;;
20824;SDS011;10573;50.936;6.978;2023-07-31T14:23:51;2.63;;;1.77;;
20824;SDS011;10573;50.936;6.978;2023-07-31T14:26:16;2.70;;;1.80;;
20824;SDS011;10573;50.936;6.978;2023-07-31T14:28:42;2.80;;;2.00;;
20824;SDS011;10573;50.936;6.978;2023-07-31T14:31:07;2.50;;;1.90;;
20824;SDS011;10573;50.936;6.978;2023-07-31T14:33:33;3.43;;;1.93;;
20824;SDS011;10573;50.936;6.978;2023-07-31T14:35:58;3.38;;;1.80;;
20824;SDS011;10573;50.936;6.978;2023-07-31T14:38:24;4.13;;;2.13;;
20824;SDS011;10573;50.936;6.978;2023-07-31T14:40:49;3.30;;;2.00;;
20824;SDS011;10573;50.936;6.978;2023-07-31T14:43:14;5.05;;;1.80;;
20824;SDS011;10573;50.936;6.978;2023-07-31T14:45:40;2.90;;;2.03;;
20824;SDS011;10573;50.936;6.978;2023-07-31T14:48:05;2.50;;;1.93;;
20824;SDS011;10573;50.936;6.978;2023-07-31T14:50:31;4.03;;;2.00;;